sensor_id;sensor_type;location;lat;lon;timestamp;pressure;altitude;pressure_sealevel;temperature;humidity
3254;BME280;1639;42.804;23.342;2023-05-02T00:01:32;73530.75;;;-148.52;100.00
3254;BME280;1639;42.804;23.342;2023-05-02T00:03:57;73522.47;;;-148.52;100.00
3254;BME280;1639;42.804;23.342;2023-05-02T00:06:23;73526.59;;;-148.52;100.00
3254;BME280;1639;42.804;23.342;2023-05-02T00:08:48;73530.75;;;-148.52;100.00
3254;BME280;1639;42.804;23.342;2023-05-02T00:11:14;73534.88;;;-148.52;100.00
3254;BME280;1639;42.804;23.342;2023-05-02T00:13:39;73532.81;;;-148.52;100.00
3254;BME280;1639;42.804;23.342;2023-05-02T00:16:05;73539.00;;;-148.52;99.87
3254;BME280;1639;42.804;23.342;2023-05-02T00:18:31;73551.41;;;-148.52;95.87
3254;BME280;1639;42.804;23.342;2023-05-02T00:20:56;73563.84;;;-148.52;93.96
3254;BME280;1639;42.804;23.342;2023-05-02T00:23:22;73576.25;;;-148.52;94.10
3254;BME280;1639;42.804;23.342;2023-05-02T00:25:48;73576.25;;;-148.52;96.94
3254;BME280;1639;42.804;23.342;2023-05-02T00:28:13;73576.25;;;-148.52;100.00
3254;BME280;1639;42.804;23.342;2023-05-02T00:30:45;73572.09;;;-148.52;100.00
3254;BME280;1639;42.804;23.342;2023-05-02T00:33:11;73576.25;;;-148.52;100.00
3254;BME280;1639;42.804;23.342;2023-05-02T00:35:37;73582.44;;;-148.52;100.00
3254;BME280;1639;42.804;23.342;2023-05-02T00:38:03;73592.78;;;-148.52;100.00
3254;BME280;1639;42.804;23.342;2023-05-02T00:40:28;73594.84;;;-148.52;100.00
3254;BME280;1639;42.804;23.342;2023-05-02T00:42:53;73607.28;;;-148.52;100.00
3254;BME280;1639;42.804;23.342;2023-05-02T00:45:19;73625.88;;;-148.52;100.00
3254;BME280;1639;42.804;23.342;2023-05-02T00:47:44;73642.44;;;-148.52;100.00
3254;BME280;1639;42.804;23.342;2023-05-02T00:50:10;73646.56;;;-148.52;100.00
3254;BME280;1639;42.804;23.342;2023-05-02T00:52:36;73656.91;;;-148.52;100.00
3254;BME280;1639;42.804;23.342;2023-05-02T00:55:02;73658.97;;;-148.52;100.00
3254;BME280;1639;42.804;23.342;2023-05-02T00:57:28;73663.13;;;-148.52;100.00
3254;BME280;1639;42.804;23.342;2023-05-02T00:59:53;73654.84;;;-148.52;100.00
3254;BME280;1639;42.804;23.342;2023-05-02T01:02:42;73621.75;;;-148.52;100.00
3254;BME280;1639;42.804;23.342;2023-05-02T01:05:38;73588.66;;;-148.52;100.00
3254;BME280;1639;42.804;23.342;2023-05-02T01:08:33;73584.50;;;-148.52;100.00
3254;BME280;1639;42.804;23.342;2023-05-02T01:11:27;73578.31;;;-148.52;100.00
3254;BME280;1639;42.804;23.342;2023-05-02T01:13:56;73570.03;;;-148.52;100.00
3254;BME280;1639;42.804;23.342;2023-05-02T01:16:24;73576.25;;;-148.52;100.00
3254;BME280;1639;42.804;23.342;2023-05-02T01:18:50;73559.69;;;-148.52;100.00
3254;BME280;1639;42.804;23.342;2023-05-02T01:21:16;73596.94;;;-148.52;100.00
3254;BME280;1639;42.804;23.342;2023-05-02T01:29:33;73621.75;;;-148.52;100.00
3254;BME280;1639;42.804;23.342;2023-05-02T01:32:02;73634.16;;;-148.52;100.00
3254;BME280;1639;42.804;23.342;2023-05-02T01:34:30;73621.75;;;-148.52;100.00
3254;BME280;1639;42.804;23.342;2023-05-02T01:36:58;73627.97;;;-148.52;100.00
3254;BME280;1639;42.804;23.342;2023-05-02T01:39:25;73644.50;;;-148.52;100.00
3254;BME280;1639;42.804;23.342;2023-05-02T01:41:53;73630.03;;;-148.52;100.00
3254;BME280;1639;42.804;23.342;2023-05-02T01:44:21;73621.75;;;-148.52;100.00
3254;BME280;1639;42.804;23.342;2023-05-02T01:46:48;73617.63;;;-148.52;100.00
3254;BME280;1639;42.804;23.342;2023-05-02T01:49:15;73601.06;;;-148.52;100.00
3254;BME280;1639;42.804;23.342;2023-05-02T01:51:47;73596.94;;;-148.52;100.00
3254;BME280;1639;42.804;23.342;2023-05-02T01:54:15;73609.34;;;-148.52;100.00
3254;BME280;1639;42.804;23.342;2023-05-02T01:56:41;73607.28;;;-148.52;100.00
3254;BME280;1639;42.804;23.342;2023-05-02T01:59:11;73603.13;;;-148.52;100.00
3254;BME280;1639;42.804;23.342;2023-05-02T02:01:38;73588.66;;;-148.52;100.00
3254;BME280;1639;42.804;23.342;2023-05-02T02:04:06;73613.47;;;-148.52;100.00
3254;BME280;1639;42.804;23.342;2023-05-02T02:06:33;73621.75;;;-148.52;100.00
3254;BME280;1639;42.804;23.342;2023-05-02T02:08:58;73621.75;;;-148.52;100.00
3254;BME280;1639;42.804;23.342;2023-05-02T02:11:28;73603.13;;;-148.52;100.00
3254;BME280;1639;42.804;23.342;2023-05-02T02:14:13;73592.78;;;-148.52;100.00
3254;BME280;1639;42.804;23.342;2023-05-02T02:16:42;73578.31;;;-148.52;100.00
3254;BME280;1639;42.804;23.342;2023-05-02T02:19:09;73572.09;;;-148.52;100.00
3254;BME280;1639;42.804;23.342;2023-05-02T02:21:37;73603.13;;;-148.52;100.00
3254;BME280;1639;42.804;23.342;2023-05-02T02:24:06;73603.13;;;-148.52;100.00
3254;BME280;1639;42.804;23.342;2023-05-02T02:26:32;73599.00;;;-148.52;100.00
3254;BME280;1639;42.804;23.342;2023-05-02T02:28:59;73613.47;;;-148.52;100.00
3254;BME280;1639;42.804;23.342;2023-05-02T02:31:30;73607.28;;;-148.52;100.00
3254;BME280;1639;42.804;23.342;2023-05-02T02:33:55;73603.13;;;-148.52;100.00
3254;BME280;1639;42.804;23.342;2023-05-02T02:36:26;73607.28;;;-148.52;100.00
3254;BME280;1639;42.804;23.342;2023-05-02T02:41:59;73605.19;;;-148.52;100.00
3254;BME280;1639;42.804;23.342;2023-05-02T02:44:38;73611.41;;;-148.52;100.00
3254;BME280;1639;42.804;23.342;2023-05-02T02:47:13;73630.03;;;-148.52;100.00
3254;BME280;1639;42.804;23.342;2023-05-02T02:58:00;73621.75;;;-148.52;100.00
3254;BME280;1639;42.804;23.342;2023-05-02T03:00:28;73636.22;;;-148.52;100.00
3254;BME280;1639;42.804;23.342;2023-05-02T03:02:56;73681.75;;;-148.52;100.00
3254;BME280;1639;42.804;23.342;2023-05-02T03:05:22;73677.59;;;-148.52;100.00
3254;BME280;1639;42.804;23.342;2023-05-02T03:07:48;73683.81;;;-148.52;100.00
3254;BME280;1639;42.804;23.342;2023-05-02T03:10:13;73673.47;;;-148.52;100.00
3254;BME280;1639;42.804;23.342;2023-05-02T03:12:39;73685.88;;;-148.52;100.00
3254;BME280;1639;42.804;23.342;2023-05-02T03:15:17;73692.09;;;-148.52;100.00
3254;BME280;1639;42.804;23.342;2023-05-02T03:17:48;73677.59;;;-148.52;100.00
3254;BME280;1639;42.804;23.342;2023-05-02T03:20:13;73677.59;;;-148.52;100.00
3254;BME280;1639;42.804;23.342;2023-05-02T03:22:38;73696.22;;;-148.52;100.00
3254;BME280;1639;42.804;23.342;2023-05-02T03:25:04;73700.34;;;-148.52;100.00
3254;BME280;1639;42.804;23.342;2023-05-02T03:27:29;73702.44;;;-148.52;100.00
3254;BME280;1639;42.804;23.342;2023-05-02T03:29:56;73708.63;;;-148.52;100.00
3254;BME280;1639;42.804;23.342;2023-05-02T03:32:21;73683.81;;;-148.52;100.00
3254;BME280;1639;42.804;23.342;2023-05-02T03:34:47;73671.41;;;-148.52;100.00
3254;BME280;1639;42.804;23.342;2023-05-02T03:37:12;73652.78;;;-148.52;100.00
3254;BME280;1639;42.804;23.342;2023-05-02T03:39:37;73640.38;;;-148.52;100.00
3254;BME280;1639;42.804;23.342;2023-05-02T03:42:04;73627.97;;;-148.52;100.00
3254;BME280;1639;42.804;23.342;2023-05-02T03:44:29;73627.97;;;-148.52;100.00
3254;BME280;1639;42.804;23.342;2023-05-02T03:46:55;73638.31;;;-148.52;100.00
3254;BME280;1639;42.804;23.342;2023-05-02T03:49:20;73665.19;;;-148.52;100.00
3254;BME280;1639;42.804;23.342;2023-05-02T03:51:46;73658.97;;;-148.52;100.00
3254;BME280;1639;42.804;23.342;2023-05-02T03:54:11;73654.84;;;-148.52;100.00
3254;BME280;1639;42.804;23.342;2023-05-02T03:56:36;73636.22;;;-148.52;100.00
3254;BME280;1639;42.804;23.342;2023-05-02T03:59:03;73642.44;;;-148.52;100.00
3254;BME280;1639;42.804;23.342;2023-05-02T04:01:29;73619.69;;;-148.52;100.00
3254;BME280;1639;42.804;23.342;2023-05-02T04:03:55;73621.75;;;-148.52;100.00
3254;BME280;1639;42.804;23.342;2023-05-02T04:06:21;73630.03;;;-148.52;100.00
3254;BME280;1639;42.804;23.342;2023-05-02T04:08:46;73636.22;;;-148.52;100.00
3254;BME280;1639;42.804;23.342;2023-05-02T04:11:11;73634.16;;;-148.52;100.00
3254;BME280;1639;42.804;23.342;2023-05-02T04:13:37;73627.97;;;-148.52;100.00
3254;BME280;1639;42.804;23.342;2023-05-02T04:16:02;73619.69;;;-148.52;100.00
3254;BME280;1639;42.804;23.342;2023-05-02T04:18:28;73596.94;;;-148.52;100.00
3254;BME280;1639;42.804;23.342;2023-05-02T04:20:55;73578.31;;;-148.52;100.00
3254;BME280;1639;42.804;23.342;2023-05-02T04:23:20;73576.25;;;-148.52;100.00
3254;BME280;1639;42.804;23.342;2023-05-02T04:25:55;73559.69;;;-148.52;100.00
3254;BME280;1639;42.804;23.342;2023-05-02T04:28:21;73555.56;;;-148.52;100.00
3254;BME280;1639;42.804;23.342;2023-05-02T04:30:48;73539.00;;;-148.52;100.00
3254;BME280;1639;42.804;23.342;2023-05-02T04:33:13;73543.16;;;-148.52;100.00
3254;BME280;1639;42.804;23.342;2023-05-02T04:35:39;73524.53;;;-148.52;100.00
3254;BME280;1639;42.804;23.342;2023-05-02T04:38:05;73524.53;;;-148.52;100.00
3254;BME280;1639;42.804;23.342;2023-05-02T04:40:31;73512.13;;;-148.52;100.00
3254;BME280;1639;42.804;23.342;2023-05-02T04:42:56;73497.63;;;-148.52;100.00
3254;BME280;1639;42.804;23.342;2023-05-02T04:45:21;73472.81;;;-148.52;100.00
3254;BME280;1639;42.804;23.342;2023-05-02T04:47:47;73468.69;;;-148.52;100.00
3254;BME280;1639;42.804;23.342;2023-05-02T04:50:12;73454.19;;;-148.52;100.00
3254;BME280;1639;42.804;23.342;2023-05-02T04:52:37;73445.94;;;-148.52;99.60
3254;BME280;1639;42.804;23.342;2023-05-02T04:55:03;73421.09;;;-148.52;100.00
3254;BME280;1639;42.804;23.342;2023-05-02T04:57:29;73392.16;;;-148.52;97.61
3254;BME280;1639;42.804;23.342;2023-05-02T04:59:54;73371.47;;;-148.52;94.21
3254;BME280;1639;42.804;23.342;2023-05-02T05:02:19;73354.91;;;-148.52;91.75
3254;BME280;1639;42.804;23.342;2023-05-02T05:04:45;73354.91;;;-148.52;88.66
3254;BME280;1639;42.804;23.342;2023-05-02T05:07:10;73332.16;;;-148.52;86.95
3254;BME280;1639;42.804;23.342;2023-05-02T05:09:36;73313.56;;;-148.52;86.31
3254;BME280;1639;42.804;23.342;2023-05-02T05:12:01;73290.81;;;-148.52;86.32
3254;BME280;1639;42.804;23.342;2023-05-02T05:14:27;73276.31;;;-148.52;83.61
3254;BME280;1639;42.804;23.342;2023-05-02T05:16:52;73282.53;;;-148.52;81.67
3254;BME280;1639;42.804;23.342;2023-05-02T05:19:18;73290.81;;;-148.52;79.67
3254;BME280;1639;42.804;23.342;2023-05-02T05:21:43;73282.53;;;-148.52;80.20
3254;BME280;1639;42.804;23.342;2023-05-02T05:24:08;73282.53;;;-148.52;78.22
3254;BME280;1639;42.804;23.342;2023-05-02T05:26:34;73272.19;;;-148.52;76.51
3254;BME280;1639;42.804;23.342;2023-05-02T05:28:59;73259.78;;;-148.52;76.31
3254;BME280;1639;42.804;23.342;2023-05-02T05:31:24;73249.44;;;-148.52;76.90
3254;BME280;1639;42.804;23.342;2023-05-02T05:33:50;73249.44;;;-148.52;73.85
3254;BME280;1639;42.804;23.342;2023-05-02T05:36:16;73253.56;;;-148.52;72.08
3254;BME280;1639;42.804;23.342;2023-05-02T05:38:41;73245.28;;;-148.52;70.70
3254;BME280;1639;42.804;23.342;2023-05-02T05:41:07;73251.50;;;-148.52;70.27
3254;BME280;1639;42.804;23.342;2023-05-02T05:43:33;73234.94;;;-148.52;70.71
3254;BME280;1639;42.804;23.342;2023-05-02T05:45:59;73216.34;;;-148.52;68.87
3254;BME280;1639;42.804;23.342;2023-05-02T05:48:24;73228.75;;;-148.52;67.62
3254;BME280;1639;42.804;23.342;2023-05-02T05:50:50;73212.19;;;-148.52;67.48
3254;BME280;1639;42.804;23.342;2023-05-02T05:53:16;73216.34;;;-148.52;68.71
3254;BME280;1639;42.804;23.342;2023-05-02T05:55:42;73210.13;;;-148.52;67.55
3254;BME280;1639;42.804;23.342;2023-05-02T05:58:07;73193.59;;;-148.52;67.21
3254;BME280;1639;42.804;23.342;2023-05-02T06:00:34;73177.03;;;-148.52;65.75
3254;BME280;1639;42.804;23.342;2023-05-02T06:02:59;73172.91;;;-148.52;65.20
3254;BME280;1639;42.804;23.342;2023-05-02T06:05:25;73154.28;;;-148.52;65.83
3254;BME280;1639;42.804;23.342;2023-05-02T06:07:50;73131.53;;;-148.52;65.76
3254;BME280;1639;42.804;23.342;2023-05-02T06:10:16;73115.00;;;-148.52;62.21
3254;BME280;1639;42.804;23.342;2023-05-02T06:12:41;73110.84;;;-148.52;62.66
3254;BME280;1639;42.804;23.342;2023-05-02T06:15:07;73119.13;;;-148.52;60.78
3254;BME280;1639;42.804;23.342;2023-05-02T06:17:32;73110.84;;;-148.52;59.63
3254;BME280;1639;42.804;23.342;2023-05-02T06:19:57;73100.50;;;-148.52;60.18
3254;BME280;1639;42.804;23.342;2023-05-02T06:22:23;73075.69;;;-148.52;58.19
3254;BME280;1639;42.804;23.342;2023-05-02T06:24:48;73065.34;;;-148.52;59.45
3254;BME280;1639;42.804;23.342;2023-05-02T06:27:13;73046.75;;;-148.52;57.64
3254;BME280;1639;42.804;23.342;2023-05-02T06:29:39;73030.19;;;-148.52;58.22
3254;BME280;1639;42.804;23.342;2023-05-02T06:32:04;73007.44;;;-148.52;57.89
3254;BME280;1639;42.804;23.342;2023-05-02T06:34:31;73013.66;;;-148.52;56.07
3254;BME280;1639;42.804;23.342;2023-05-02T06:36:57;73003.31;;;-148.52;56.64
3254;BME280;1639;42.804;23.342;2023-05-02T06:39:23;72939.19;;;-148.52;57.46
3254;BME280;1639;42.804;23.342;2023-05-02T06:41:48;72935.06;;;-148.52;54.64
3254;BME280;1639;42.804;23.342;2023-05-02T06:44:14;72924.72;;;-148.52;52.87
3254;BME280;1639;42.804;23.342;2023-05-02T06:46:39;72914.38;;;-148.52;52.76
3254;BME280;1639;42.804;23.342;2023-05-02T06:49:05;72910.25;;;-148.52;50.90
3254;BME280;1639;42.804;23.342;2023-05-02T06:51:30;72875.06;;;-148.52;51.93
3254;BME280;1639;42.804;23.342;2023-05-02T06:53:56;72860.59;;;-148.52;50.38
3254;BME280;1639;42.804;23.342;2023-05-02T06:56:22;72817.16;;;-148.52;51.39
3254;BME280;1639;42.804;23.342;2023-05-02T06:58:50;72782.00;;;-148.52;50.81
3254;BME280;1639;42.804;23.342;2023-05-02T07:01:15;72777.88;;;-148.52;48.65
3254;BME280;1639;42.804;23.342;2023-05-02T07:03:41;72757.19;;;-148.52;51.31
3254;BME280;1639;42.804;23.342;2023-05-02T07:06:06;72728.25;;;-148.52;49.29
3254;BME280;1639;42.804;23.342;2023-05-02T07:08:32;72699.28;;;-148.52;49.73
3254;BME280;1639;42.804;23.342;2023-05-02T07:10:57;72703.44;;;-148.52;46.44
3254;BME280;1639;42.804;23.342;2023-05-02T07:13:22;72693.09;;;-148.52;46.67
3254;BME280;1639;42.804;23.342;2023-05-02T07:15:48;72682.75;;;-148.52;46.92
3254;BME280;1639;42.804;23.342;2023-05-02T07:18:13;72660.00;;;-148.52;46.62
3254;BME280;1639;42.804;23.342;2023-05-02T07:20:38;72662.06;;;-148.52;45.26
3254;BME280;1639;42.804;23.342;2023-05-02T07:23:06;72639.31;;;-148.52;44.43
3254;BME280;1639;42.804;23.342;2023-05-02T07:25:31;72641.38;;;-148.52;43.92
3254;BME280;1639;42.804;23.342;2023-05-02T07:27:57;72626.91;;;-148.52;43.53
3254;BME280;1639;42.804;23.342;2023-05-02T07:30:22;72649.66;;;-148.52;43.86
3254;BME280;1639;42.804;23.342;2023-05-02T07:32:48;72612.44;;;-148.52;44.66
3254;BME280;1639;42.804;23.342;2023-05-02T07:35:13;72645.53;;;-148.52;42.33
3254;BME280;1639;42.804;23.342;2023-05-02T07:37:38;72653.78;;;-148.52;42.80
3254;BME280;1639;42.804;23.342;2023-05-02T07:40:04;72641.38;;;-148.52;43.06
3254;BME280;1639;42.804;23.342;2023-05-02T07:42:31;72608.28;;;-148.52;43.79
3254;BME280;1639;42.804;23.342;2023-05-02T07:44:57;72562.81;;;-148.52;43.51
3254;BME280;1639;42.804;23.342;2023-05-02T07:47:23;72562.81;;;-148.52;42.58
3254;BME280;1639;42.804;23.342;2023-05-02T07:49:51;72575.22;;;-148.52;43.10
3254;BME280;1639;42.804;23.342;2023-05-02T07:52:16;72583.47;;;-148.52;41.27
3254;BME280;1639;42.804;23.342;2023-05-02T07:54:42;72606.22;;;-148.52;42.70
3254;BME280;1639;42.804;23.342;2023-05-02T07:57:07;72608.28;;;-148.52;41.92
3254;BME280;1639;42.804;23.342;2023-05-02T07:59:33;72566.94;;;-148.52;40.95
3254;BME280;1639;42.804;23.342;2023-05-02T08:01:58;72566.94;;;-148.52;41.21
3254;BME280;1639;42.804;23.342;2023-05-02T08:04:24;72575.22;;;-148.52;40.65
3254;BME280;1639;42.804;23.342;2023-05-02T08:06:50;72556.59;;;-148.52;40.49
3254;BME280;1639;42.804;23.342;2023-05-02T08:09:15;72556.59;;;-148.52;41.86
3254;BME280;1639;42.804;23.342;2023-05-02T08:11:41;72540.06;;;-148.52;40.52
3254;BME280;1639;42.804;23.342;2023-05-02T08:14:06;72542.13;;;-148.52;40.23
3254;BME280;1639;42.804;23.342;2023-05-02T08:16:32;72531.78;;;-148.52;40.38
3254;BME280;1639;42.804;23.342;2023-05-02T08:18:57;72529.72;;;-148.52;39.46
3254;BME280;1639;42.804;23.342;2023-05-02T08:21:22;72546.25;;;-148.52;39.71
3254;BME280;1639;42.804;23.342;2023-05-02T08:23:48;72533.84;;;-148.52;41.52
3254;BME280;1639;42.804;23.342;2023-05-02T08:26:13;72540.06;;;-148.52;39.42
3254;BME280;1639;42.804;23.342;2023-05-02T08:28:40;72548.31;;;-148.52;38.89
3254;BME280;1639;42.804;23.342;2023-05-02T08:31:05;72548.31;;;-148.52;39.68
3254;BME280;1639;42.804;23.342;2023-05-02T08:33:30;72550.38;;;-148.52;39.11
3254;BME280;1639;42.804;23.342;2023-05-02T08:35:56;72511.09;;;-148.52;39.81
3254;BME280;1639;42.804;23.342;2023-05-02T08:38:21;72496.63;;;-148.52;38.89
3254;BME280;1639;42.804;23.342;2023-05-02T08:40:47;72488.34;;;-148.52;38.89
3254;BME280;1639;42.804;23.342;2023-05-02T08:43:15;72475.94;;;-148.52;38.59
3254;BME280;1639;42.804;23.342;2023-05-02T08:45:43;72482.16;;;-148.52;39.59
3254;BME280;1639;42.804;23.342;2023-05-02T08:48:11;72467.66;;;-148.52;37.82
3254;BME280;1639;42.804;23.342;2023-05-02T08:50:38;72461.47;;;-148.52;38.44
3254;BME280;1639;42.804;23.342;2023-05-02T08:53:06;72475.94;;;-148.52;37.04
3254;BME280;1639;42.804;23.342;2023-05-02T08:55:37;72447.00;;;-148.52;37.98
3254;BME280;1639;42.804;23.342;2023-05-02T08:58:04;72440.78;;;-148.52;38.64
3254;BME280;1639;42.804;23.342;2023-05-02T09:00:37;72403.56;;;-148.52;37.42
3254;BME280;1639;42.804;23.342;2023-05-02T09:03:26;72391.16;;;-148.52;37.04
3254;BME280;1639;42.804;23.342;2023-05-02T09:08:37;72409.78;;;-148.52;38.25
3254;BME280;1639;42.804;23.342;2023-05-02T09:11:04;72428.38;;;-148.52;37.68
3254;BME280;1639;42.804;23.342;2023-05-02T09:13:41;72430.44;;;-148.52;37.20
3254;BME280;1639;42.804;23.342;2023-05-02T09:18:43;72405.63;;;-148.52;36.60
3254;BME280;1639;42.804;23.342;2023-05-02T09:21:17;72395.28;;;-148.52;38.29
3254;BME280;1639;42.804;23.342;2023-05-02T09:23:44;72397.38;;;-148.52;37.13
3254;BME280;1639;42.804;23.342;2023-05-02T09:26:21;72426.31;;;-148.52;37.36
3254;BME280;1639;42.804;23.342;2023-05-02T09:28:51;72372.56;;;-148.52;37.21
3254;BME280;1639;42.804;23.342;2023-05-02T09:31:21;72335.31;;;-148.52;38.40
3254;BME280;1639;42.804;23.342;2023-05-02T09:33:48;72384.97;;;-148.52;37.31
3254;BME280;1639;42.804;23.342;2023-05-02T09:36:15;72382.88;;;-148.52;37.61
3254;BME280;1639;42.804;23.342;2023-05-02T09:38:42;72337.41;;;-148.52;37.51
3254;BME280;1639;42.804;23.342;2023-05-02T09:41:08;72351.88;;;-148.52;36.70
3254;BME280;1639;42.804;23.342;2023-05-02T09:43:34;72318.78;;;-148.52;38.14
3254;BME280;1639;42.804;23.342;2023-05-02T09:46:02;72302.25;;;-148.52;38.55
3254;BME280;1639;42.804;23.342;2023-05-02T09:48:29;72333.25;;;-148.52;37.82
3254;BME280;1639;42.804;23.342;2023-05-02T09:50:55;72296.03;;;-148.52;37.13
3254;BME280;1639;42.804;23.342;2023-05-02T09:53:21;72296.03;;;-148.52;37.52
3254;BME280;1639;42.804;23.342;2023-05-02T09:55:58;72293.97;;;-148.52;36.38
3254;BME280;1639;42.804;23.342;2023-05-02T09:58:23;72318.78;;;-148.52;36.81
3254;BME280;1639;42.804;23.342;2023-05-02T10:00:50;72318.78;;;-148.52;36.05
3254;BME280;1639;42.804;23.342;2023-05-02T10:03:18;72308.44;;;-148.52;38.68
3254;BME280;1639;42.804;23.342;2023-05-02T10:05:45;72314.66;;;-148.52;36.36
3254;BME280;1639;42.804;23.342;2023-05-02T10:08:12;72356.00;;;-148.52;36.29
3254;BME280;1639;42.804;23.342;2023-05-02T10:10:45;72306.38;;;-148.52;37.42
3254;BME280;1639;42.804;23.342;2023-05-02T10:13:12;72260.88;;;-148.52;36.56
3254;BME280;1639;42.804;23.342;2023-05-02T10:15:42;72267.09;;;-148.52;36.41
3254;BME280;1639;42.804;23.342;2023-05-02T10:18:13;72269.16;;;-148.52;37.39
3254;BME280;1639;42.804;23.342;2023-05-02T10:20:43;72244.34;;;-148.52;37.04
3254;BME280;1639;42.804;23.342;2023-05-02T10:23:13;72254.69;;;-148.52;35.55
3254;BME280;1639;42.804;23.342;2023-05-02T10:25:40;72238.13;;;-148.52;35.21
3254;BME280;1639;42.804;23.342;2023-05-02T10:28:05;72229.88;;;-148.52;36.55
3254;BME280;1639;42.804;23.342;2023-05-02T10:30:32;72236.06;;;-148.52;36.00
3254;BME280;1639;42.804;23.342;2023-05-02T10:32:59;72246.41;;;-148.52;36.96
3254;BME280;1639;42.804;23.342;2023-05-02T10:35:25;72223.66;;;-148.52;37.24
3254;BME280;1639;42.804;23.342;2023-05-02T10:37:51;72221.59;;;-148.52;35.97
3254;BME280;1639;42.804;23.342;2023-05-02T10:40:17;72219.53;;;-148.52;35.52
3254;BME280;1639;42.804;23.342;2023-05-02T10:42:46;72207.13;;;-148.52;36.23
3254;BME280;1639;42.804;23.342;2023-05-02T10:45:29;72196.78;;;-148.52;36.03
3254;BME280;1639;42.804;23.342;2023-05-02T10:48:17;72223.66;;;-148.52;34.45
3254;BME280;1639;42.804;23.342;2023-05-02T10:50:45;72188.50;;;-148.52;34.49
3254;BME280;1639;42.804;23.342;2023-05-02T10:53:31;72165.75;;;-148.52;34.26
3254;BME280;1639;42.804;23.342;2023-05-02T10:58:31;72122.34;;;-148.52;36.14
3254;BME280;1639;42.804;23.342;2023-05-02T11:03:59;72161.63;;;-148.52;35.21
3254;BME280;1639;42.804;23.342;2023-05-02T11:06:25;72120.28;;;-148.52;36.07
3254;BME280;1639;42.804;23.342;2023-05-02T11:08:51;72124.41;;;-148.52;33.44
3254;BME280;1639;42.804;23.342;2023-05-02T11:11:38;72107.88;;;-148.52;35.93
3254;BME280;1639;42.804;23.342;2023-05-02T11:14:07;72099.59;;;-148.52;33.98
3254;BME280;1639;42.804;23.342;2023-05-02T11:20:17;72130.63;;;-148.52;34.77
3254;BME280;1639;42.804;23.342;2023-05-02T11:24:45;72126.47;;;-148.52;34.13
3254;BME280;1639;42.804;23.342;2023-05-02T11:29:56;72128.53;;;-148.52;33.16
3254;BME280;1639;42.804;23.342;2023-05-02T11:32:22;72130.63;;;-148.52;34.48
3254;BME280;1639;42.804;23.342;2023-05-02T11:34:48;72118.22;;;-148.52;33.71
3254;BME280;1639;42.804;23.342;2023-05-02T11:37:18;72145.09;;;-148.52;35.47
3254;BME280;1639;42.804;23.342;2023-05-02T11:39:44;72132.69;;;-148.52;35.07
3254;BME280;1639;42.804;23.342;2023-05-02T11:42:40;72107.88;;;-148.52;33.85
3254;BME280;1639;42.804;23.342;2023-05-02T11:45:06;72114.06;;;-148.52;34.90
3254;BME280;1639;42.804;23.342;2023-05-02T11:47:31;72112.00;;;-148.52;34.84
3254;BME280;1639;42.804;23.342;2023-05-02T11:49:57;72132.69;;;-148.52;34.34
3254;BME280;1639;42.804;23.342;2023-05-02T11:52:25;72116.13;;;-148.52;35.04
3254;BME280;1639;42.804;23.342;2023-05-02T11:54:54;72107.88;;;-148.52;33.68
3254;BME280;1639;42.804;23.342;2023-05-02T11:57:22;72120.28;;;-148.52;34.51
3254;BME280;1639;42.804;23.342;2023-05-02T11:59:51;72157.50;;;-148.52;35.06
3254;BME280;1639;42.804;23.342;2023-05-02T12:02:18;72126.47;;;-148.52;35.87
3254;BME280;1639;42.804;23.342;2023-05-02T12:04:43;72124.41;;;-148.52;35.05
3254;BME280;1639;42.804;23.342;2023-05-02T12:07:09;72130.63;;;-148.52;35.81
3254;BME280;1639;42.804;23.342;2023-05-02T12:09:34;72093.41;;;-148.52;35.26
3254;BME280;1639;42.804;23.342;2023-05-02T12:12:00;72066.50;;;-148.52;32.77
3254;BME280;1639;42.804;23.342;2023-05-02T12:14:28;72083.06;;;-148.52;32.38
3254;BME280;1639;42.804;23.342;2023-05-02T12:16:56;72095.47;;;-148.52;33.18
3254;BME280;1639;42.804;23.342;2023-05-02T12:19:22;72105.81;;;-148.52;33.74
3254;BME280;1639;42.804;23.342;2023-05-02T12:21:47;72070.66;;;-148.52;33.20
3254;BME280;1639;42.804;23.342;2023-05-02T12:24:14;72078.91;;;-148.52;32.77
3254;BME280;1639;42.804;23.342;2023-05-02T12:26:39;72087.19;;;-148.52;32.36
3254;BME280;1639;42.804;23.342;2023-05-02T12:29:05;72101.66;;;-148.52;33.27
3254;BME280;1639;42.804;23.342;2023-05-02T12:31:32;72097.53;;;-148.52;34.18
3254;BME280;1639;42.804;23.342;2023-05-02T12:33:58;72099.59;;;-148.52;33.47
3254;BME280;1639;42.804;23.342;2023-05-02T12:36:24;72095.47;;;-148.52;33.72
3254;BME280;1639;42.804;23.342;2023-05-02T12:38:51;72087.19;;;-148.52;34.17
3254;BME280;1639;42.804;23.342;2023-05-02T12:41:31;72105.81;;;-148.52;32.75
3254;BME280;1639;42.804;23.342;2023-05-02T12:43:56;72140.94;;;-148.52;32.97
3254;BME280;1639;42.804;23.342;2023-05-02T12:46:24;72132.69;;;-148.52;34.28
3254;BME280;1639;42.804;23.342;2023-05-02T12:49:01;72103.72;;;-148.52;34.21
3254;BME280;1639;42.804;23.342;2023-05-02T12:51:26;72083.06;;;-148.52;33.20
3254;BME280;1639;42.804;23.342;2023-05-02T12:53:52;72070.66;;;-148.52;33.57
3254;BME280;1639;42.804;23.342;2023-05-02T12:56:18;72112.00;;;-148.52;33.59
3254;BME280;1639;42.804;23.342;2023-05-02T12:58:46;72124.41;;;-148.52;32.46
3254;BME280;1639;42.804;23.342;2023-05-02T13:01:14;72126.47;;;-148.52;33.01
3254;BME280;1639;42.804;23.342;2023-05-02T13:03:41;72124.41;;;-148.52;32.59
3254;BME280;1639;42.804;23.342;2023-05-02T13:06:07;72107.88;;;-148.52;33.12
3254;BME280;1639;42.804;23.342;2023-05-02T13:08:33;72097.53;;;-148.52;32.74
3254;BME280;1639;42.804;23.342;2023-05-02T13:11:00;72093.41;;;-148.52;33.48
3254;BME280;1639;42.804;23.342;2023-05-02T13:13:26;72081.00;;;-148.52;33.09
3254;BME280;1639;42.804;23.342;2023-05-02T13:15:52;72070.66;;;-148.52;32.30
3254;BME280;1639;42.804;23.342;2023-05-02T13:18:17;72087.19;;;-148.52;32.36
3254;BME280;1639;42.804;23.342;2023-05-02T13:20:43;72091.31;;;-148.52;32.59
3254;BME280;1639;42.804;23.342;2023-05-02T13:23:08;72116.13;;;-148.52;32.79